sensor_id;sensor_type;location;lat;lon;timestamp;P1;durP1;ratioP1;P2;durP2;ratioP2
16383;SDS011;8301;51.440;6.610;2023-05-07T11:15:07;1999.90;;;969.52;;
16383;SDS011;8301;51.440;6.610;2023-05-07T11:17:54;1950.88;;;847.87;;
16383;SDS011;8301;51.440;6.610;2023-05-07T11:26:07;933.38;;;765.33;;
16383;SDS011;8301;51.440;6.610;2023-05-07T11:28:43;1146.70;;;793.58;;
16383;SDS011;8301;51.440;6.610;2023-05-07T11:31:11;1094.85;;;793.02;;
16383;SDS011;8301;51.440;6.610;2023-05-07T11:33:38;1029.63;;;784.13;;
16383;SDS011;8301;51.440;6.610;2023-05-07T11:36:07;908.47;;;750.05;;
16383;SDS011;8301;51.440;6.610;2023-05-07T11:38:36;929.40;;;753.10;;
16383;SDS011;8301;51.440;6.610;2023-05-07T11:41:09;1053.35;;;791.65;;
16383;SDS011;8301;51.440;6.610;2023-05-07T11:43:38;929.57;;;751.15;;
16383;SDS011;8301;51.440;6.610;2023-05-07T11:46:09;1129.38;;;795.60;;
16383;SDS011;8301;51.440;6.610;2023-05-07T11:48:38;979.35;;;767.48;;
16383;SDS011;8301;51.440;6.610;2023-05-07T11:51:09;991.08;;;759.15;;
16383;SDS011;8301;51.440;6.610;2023-05-07T11:53:45;1017.40;;;770.57;;
16383;SDS011;8301;51.440;6.610;2023-05-07T11:56:09;940.65;;;749.08;;
16383;SDS011;8301;51.440;6.610;2023-05-07T11:58:39;789.83;;;662.08;;
16383;SDS011;8301;51.440;6.610;2023-05-07T12:01:08;970.17;;;765.85;;
16383;SDS011;8301;51.440;6.610;2023-05-07T12:03:37;1992.65;;;880.72;;
16383;SDS011;8301;51.440;6.610;2023-05-07T12:06:08;1720.25;;;823.87;;
16383;SDS011;8301;51.440;6.610;2023-05-07T12:08:37;779.05;;;697.98;;
16383;SDS011;8301;51.440;6.610;2023-05-07T12:11:09;904.33;;;728.50;;
16383;SDS011;8301;51.440;6.610;2023-05-07T12:16:05;1074.98;;;780.77;;
16383;SDS011;8301;51.440;6.610;2023-05-07T12:18:34;1188.95;;;803.90;;
16383;SDS011;8301;51.440;6.610;2023-05-07T12:21:04;961.22;;;766.48;;
16383;SDS011;8301;51.440;6.610;2023-05-07T12:23:34;1042.85;;;777.55;;
16383;SDS011;8301;51.440;6.610;2023-05-07T12:26:02;1098.58;;;793.23;;
16383;SDS011;8301;51.440;6.610;2023-05-07T12:28:30;873.17;;;745.33;;
16383;SDS011;8301;51.440;6.610;2023-05-07T12:31:00;950.70;;;771.35;;
16383;SDS011;8301;51.440;6.610;2023-05-07T12:33:30;820.75;;;715.23;;
16383;SDS011;8301;51.440;6.610;2023-05-07T12:35:58;1121.55;;;791.75;;
16383;SDS011;8301;51.440;6.610;2023-05-07T12:38:27;1067.85;;;778.30;;
16383;SDS011;8301;51.440;6.610;2023-05-07T12:40:58;1063.93;;;784.63;;
16383;SDS011;8301;51.440;6.610;2023-05-07T12:43:26;1060.30;;;786.95;;
16383;SDS011;8301;51.440;6.610;2023-05-07T12:46:00;948.27;;;753.23;;
16383;SDS011;8301;51.440;6.610;2023-05-07T12:48:29;993.62;;;770.45;;
16383;SDS011;8301;51.440;6.610;2023-05-07T12:50:58;903.48;;;720.90;;
16383;SDS011;8301;51.440;6.610;2023-05-07T12:53:28;854.08;;;714.70;;
16383;SDS011;8301;51.440;6.610;2023-05-07T12:55:57;986.37;;;739.58;;
16383;SDS011;8301;51.440;6.610;2023-05-07T12:58:27;903.73;;;705.33;;
16383;SDS011;8301;51.440;6.610;2023-05-07T13:00:57;974.08;;;731.25;;
16383;SDS011;8301;51.440;6.610;2023-05-07T13:03:29;1003.83;;;741.08;;
16383;SDS011;8301;51.440;6.610;2023-05-07T13:05:59;1012.52;;;743.65;;
16383;SDS011;8301;51.440;6.610;2023-05-07T13:08:32;1117.35;;;769.50;;
16383;SDS011;8301;51.440;6.610;2023-05-07T13:11:03;1050.68;;;774.80;;
16383;SDS011;8301;51.440;6.610;2023-05-07T13:13:31;944.00;;;748.85;;
16383;SDS011;8301;51.440;6.610;2023-05-07T13:16:00;900.75;;;733.17;;
16383;SDS011;8301;51.440;6.610;2023-05-07T13:18:31;854.80;;;708.30;;
16383;SDS011;8301;51.440;6.610;2023-05-07T13:20:59;956.42;;;727.95;;
16383;SDS011;8301;51.440;6.610;2023-05-07T13:23:28;801.90;;;555.10;;
16383;SDS011;8301;51.440;6.610;2023-05-07T13:25:56;966.32;;;712.17;;
16383;SDS011;8301;51.440;6.610;2023-05-07T13:28:24;884.13;;;690.30;;
16383;SDS011;8301;51.440;6.610;2023-05-07T13:30:52;922.57;;;710.37;;
16383;SDS011;8301;51.440;6.610;2023-05-07T13:33:20;746.60;;;581.30;;
16383;SDS011;8301;51.440;6.610;2023-05-07T13:38:14;794.83;;;673.62;;
16383;SDS011;8301;51.440;6.610;2023-05-07T13:40:42;760.63;;;641.50;;
16383;SDS011;8301;51.440;6.610;2023-05-07T13:43:09;752.42;;;622.60;;
16383;SDS011;8301;51.440;6.610;2023-05-07T13:48:04;730.73;;;618.60;;
16383;SDS011;8301;51.440;6.610;2023-05-07T13:50:31;653.90;;;523.25;;
16383;SDS011;8301;51.440;6.610;2023-05-07T13:52:59;636.70;;;501.00;;
16383;SDS011;8301;51.440;6.610;2023-05-07T13:55:28;713.83;;;615.88;;
16383;SDS011;8301;51.440;6.610;2023-05-07T14:05:19;723.65;;;629.30;;
